createdAt,value
2023-03-27T00:01:25.858Z,2.42
2023-03-27T00:03:53.448Z,3.28
2023-03-27T00:06:22.022Z,3.28
2023-03-27T00:08:51.761Z,3.22
2023-03-27T00:11:21.805Z,2.90
2023-03-27T00:13:51.450Z,3.65
2023-03-27T00:16:26.594Z,2.22
2023-03-27T00:18:55.821Z,2.58
2023-03-27T00:21:24.139Z,3.00
2023-03-27T00:23:52.102Z,3.38
2023-03-27T00:26:19.950Z,2.63
2023-03-27T00:28:47.433Z,1.85
2023-03-27T00:31:17.428Z,2.35
2023-03-27T00:33:44.624Z,2.50
2023-03-27T00:36:12.063Z,2.60
2023-03-27T00:38:40.150Z,2.05
2023-03-27T00:41:08.815Z,2.97
2023-03-27T00:43:42.658Z,3.63
2023-03-27T00:46:15.907Z,2.55
2023-03-27T00:48:48.853Z,2.63
2023-03-27T00:51:20.204Z,2.80
2023-03-27T00:53:49.351Z,3.75
2023-03-27T00:56:17.995Z,3.10
2023-03-27T00:58:53.707Z,3.95
2023-03-27T01:01:27.700Z,2.60
2023-03-27T01:04:00.971Z,3.17
2023-03-27T01:06:31.229Z,2.50
2023-03-27T01:08:59.509Z,2.88
2023-03-27T01:12:09.117Z,1.83
2023-03-27T01:15:21.317Z,1.80
2023-03-27T01:18:33.337Z,1.73
2023-03-27T01:21:40.160Z,2.97
2023-03-27T01:24:52.901Z,2.00
2023-03-27T01:28:29.615Z,2.13
2023-03-27T01:31:16.626Z,2.00
2023-03-27T01:34:07.876Z,1.83
2023-03-27T01:36:43.765Z,1.88
2023-03-27T01:40:24.742Z,2.00
2023-03-27T01:43:05.430Z,2.72
2023-03-27T01:46:04.170Z,2.42
2023-03-27T01:48:39.198Z,2.33
2023-03-27T01:51:23.333Z,2.83
2023-03-27T01:53:59.055Z,2.40
2023-03-27T01:56:38.061Z,3.05
2023-03-27T01:59:18.994Z,4.30
2023-03-27T02:01:57.190Z,3.58
2023-03-27T02:04:39.096Z,3.22
2023-03-27T02:07:18.688Z,2.80
2023-03-27T02:09:55.565Z,2.53
2023-03-27T02:12:34.320Z,4.43
2023-03-27T02:15:25.386Z,3.00
2023-03-27T02:18:05.285Z,3.35
2023-03-27T02:20:36.682Z,3.00
2023-03-27T02:23:07.678Z,3.20
2023-03-27T02:25:38.908Z,3.25
2023-03-27T02:28:36.917Z,3.00
2023-03-27T02:31:32.824Z,2.97
2023-03-27T02:34:18.479Z,3.53
2023-03-27T02:37:50.922Z,3.72
2023-03-27T02:41:13.509Z,3.10
2023-03-27T02:44:17.091Z,4.07
2023-03-27T02:47:29.814Z,6.28
2023-03-27T02:50:28.769Z,7.28
2023-03-27T02:53:06.775Z,12.90
2023-03-27T02:55:42.229Z,11.73
2023-03-27T02:58:38.021Z,10.57
2023-03-27T03:01:13.806Z,11.23
2023-03-27T03:04:16.553Z,13.90
2023-03-27T03:07:06.386Z,18.48
2023-03-27T03:09:34.474Z,15.52
2023-03-27T03:12:08.870Z,16.92
2023-03-27T03:14:44.219Z,17.10
2023-03-27T03:17:13.903Z,11.20
2023-03-27T03:19:42.001Z,19.27
2023-03-27T03:22:09.907Z,17.92
2023-03-27T03:24:41.991Z,18.20
2023-03-27T03:27:12.703Z,18.73
2023-03-27T03:29:56.901Z,21.67
2023-03-27T03:32:28.073Z,15.02
2023-03-27T03:34:57.366Z,20.05
2023-03-27T03:37:28.608Z,17.05
2023-03-27T03:39:57.293Z,16.35
2023-03-27T03:42:25.007Z,21.70
2023-03-27T03:44:53.294Z,14.77
2023-03-27T03:47:22.519Z,22.55
2023-03-27T03:49:50.577Z,15.25
2023-03-27T03:52:18.437Z,17.42
2023-03-27T03:54:46.797Z,22.77
2023-03-27T03:57:14.328Z,18.38
2023-03-27T03:59:42.701Z,18.05
2023-03-27T04:02:29.737Z,16.58
2023-03-27T04:05:09.998Z,15.40
2023-03-27T04:07:41.054Z,15.23
2023-03-27T04:10:21.587Z,19.77
2023-03-27T04:12:50.684Z,13.48
2023-03-27T04:15:22.595Z,15.10
2023-03-27T04:18:02.102Z,15.85
2023-03-27T04:20:30.118Z,19.42
2023-03-27T04:23:02.241Z,21.58
2023-03-27T04:25:30.747Z,17.70
2023-03-27T04:28:02.101Z,18.58
2023-03-27T04:30:37.040Z,20.80
2023-03-27T04:33:19.889Z,20.67
2023-03-27T04:36:11.394Z,18.00
2023-03-27T04:39:03.478Z,15.52
2023-03-27T04:41:32.686Z,19.27
2023-03-27T04:44:00.222Z,20.55
2023-03-27T04:46:27.804Z,18.48
2023-03-27T04:49:01.273Z,14.45
2023-03-27T04:51:42.492Z,18.60
2023-03-27T04:54:11.773Z,21.52
2023-03-27T04:56:43.253Z,19.63
2023-03-27T04:59:10.400Z,17.40
2023-03-27T05:01:37.788Z,19.73
2023-03-27T05:04:26.629Z,17.20
2023-03-27T05:07:15.896Z,18.20
2023-03-27T05:09:43.148Z,14.65
2023-03-27T05:12:11.077Z,17.33
2023-03-27T05:14:49.478Z,19.02
2023-03-27T05:17:33.704Z,16.00
2023-03-27T05:20:01.861Z,14.45
2023-03-27T05:22:32.883Z,16.13
2023-03-27T05:25:09.716Z,12.05
2023-03-27T05:27:37.115Z,15.80
2023-03-27T05:30:05.169Z,16.40
2023-03-27T05:32:32.786Z,13.23
2023-03-27T05:35:11.689Z,13.35
2023-03-27T05:37:50.783Z,14.55
2023-03-27T05:40:28.234Z,13.05
2023-03-27T05:42:56.970Z,16.75
2023-03-27T05:45:29.370Z,10.25
2023-03-27T05:48:00.191Z,17.25
2023-03-27T05:50:34.656Z,14.32
2023-03-27T05:53:10.073Z,18.13
2023-03-27T05:55:41.692Z,12.68
2023-03-27T05:58:11.730Z,18.02
2023-03-27T06:00:42.711Z,11.57
2023-03-27T06:03:14.587Z,12.85
2023-03-27T06:06:07.142Z,12.77
2023-03-27T06:08:36.616Z,13.63
2023-03-27T06:11:13.454Z,18.30
2023-03-27T06:13:47.690Z,13.60
2023-03-27T06:16:20.919Z,10.82
2023-03-27T06:18:51.428Z,13.60
2023-03-27T06:21:20.931Z,13.70
2023-03-27T06:23:49.375Z,14.95
2023-03-27T06:26:18.851Z,10.13
2023-03-27T06:28:46.629Z,14.95
2023-03-27T06:31:14.850Z,15.25
2023-03-27T06:33:56.244Z,12.68
2023-03-27T06:36:35.863Z,11.77
2023-03-27T06:39:06.246Z,15.23
2023-03-27T06:41:34.382Z,11.85
2023-03-27T06:44:19.621Z,11.55
2023-03-27T06:47:07.509Z,12.85
2023-03-27T06:49:54.673Z,12.90
2023-03-27T06:52:23.757Z,10.13
2023-03-27T06:54:51.015Z,14.18
2023-03-27T06:57:18.342Z,15.75
2023-03-27T07:00:01.626Z,11.05
2023-03-27T07:02:55.308Z,8.23
2023-03-27T07:05:42.830Z,14.27
2023-03-27T07:10:56.465Z,9.38
2023-03-27T07:13:37.260Z,7.95
2023-03-27T07:16:08.499Z,13.20
2023-03-27T07:18:36.635Z,11.00
2023-03-27T07:21:04.581Z,11.98
2023-03-27T07:23:31.846Z,7.30
2023-03-27T07:26:04.595Z,12.25
2023-03-27T07:28:51.687Z,10.50
2023-03-27T07:31:33.046Z,11.27
2023-03-27T07:34:05.295Z,10.02
2023-03-27T07:36:50.966Z,13.05
2023-03-27T07:39:18.540Z,13.13
2023-03-27T07:41:46.009Z,13.32
2023-03-27T07:44:31.006Z,7.67
2023-03-27T07:47:05.859Z,14.02
2023-03-27T07:49:39.537Z,11.73
2023-03-27T07:52:09.118Z,11.35
2023-03-27T07:54:44.235Z,9.55
2023-03-27T07:57:13.824Z,13.95
2023-03-27T07:59:54.417Z,11.57
2023-03-27T08:02:31.883Z,10.80
2023-03-27T08:04:59.867Z,8.02
2023-03-27T08:07:27.275Z,11.00
2023-03-27T08:09:58.118Z,6.93
2023-03-27T08:12:25.443Z,8.85
2023-03-27T08:14:59.432Z,10.35
2023-03-27T08:17:32.491Z,7.85
2023-03-27T08:20:09.165Z,10.45
2023-03-27T08:22:44.563Z,10.52
2023-03-27T08:25:34.658Z,8.18
2023-03-27T08:28:06.220Z,8.23
2023-03-27T08:30:35.351Z,7.72
2023-03-27T08:33:03.703Z,8.63
2023-03-27T08:35:31.761Z,9.82
2023-03-27T08:37:59.629Z,7.03
2023-03-27T08:40:54.228Z,8.88
2023-03-27T08:43:44.783Z,7.30
2023-03-27T08:49:17.416Z,6.88
2023-03-27T08:52:27.355Z,5.72
2023-03-27T08:55:24.615Z,6.75
2023-03-27T08:58:03.773Z,8.73
2023-03-27T09:00:40.417Z,8.10
2023-03-27T09:03:41.354Z,7.20
2023-03-27T09:06:34.219Z,7.78
2023-03-27T09:09:46.348Z,7.00
2023-03-27T09:12:33.215Z,6.03
2023-03-27T09:15:28.130Z,7.05
2023-03-27T09:18:11.725Z,8.88
2023-03-27T09:20:54.890Z,7.18
2023-03-27T09:23:34.148Z,7.18
2023-03-27T09:26:25.568Z,6.70
2023-03-27T09:29:29.868Z,9.18
2023-03-27T09:32:15.671Z,6.82
2023-03-27T09:34:44.935Z,6.82
2023-03-27T09:37:17.896Z,6.82
2023-03-27T09:39:52.544Z,7.75
2023-03-27T09:42:39.772Z,8.43
2023-03-27T09:45:11.370Z,6.65
2023-03-27T09:47:59.866Z,7.28
2023-03-27T09:50:44.447Z,8.35
2023-03-27T09:53:59.417Z,6.35
2023-03-27T09:56:42.912Z,6.22
2023-03-27T09:59:24.427Z,6.40
2023-03-27T10:01:57.944Z,5.97
2023-03-27T10:04:30.136Z,7.00
2023-03-27T10:07:08.189Z,6.75
2023-03-27T10:10:20.078Z,6.68
2023-03-27T10:13:11.838Z,4.93
2023-03-27T10:15:45.076Z,7.35
2023-03-27T10:18:31.469Z,8.38
2023-03-27T10:21:39.234Z,8.10
2023-03-27T10:24:31.591Z,7.45
2023-03-27T10:27:26.916Z,5.38
2023-03-27T10:30:38.039Z,5.38
2023-03-27T10:33:41.331Z,6.88
2023-03-27T10:36:39.629Z,6.25
2023-03-27T10:39:15.379Z,5.25
2023-03-27T10:42:09.900Z,6.10
2023-03-27T10:44:46.980Z,6.70
2023-03-27T10:47:24.694Z,5.22
2023-03-27T10:50:38.473Z,6.03
2023-03-27T10:53:33.294Z,8.45
2023-03-27T10:56:54.055Z,5.65
2023-03-27T10:59:41.458Z,6.38
2023-03-27T11:02:25.218Z,6.18
2023-03-27T11:05:04.291Z,5.63
2023-03-27T11:07:47.903Z,4.68
2023-03-27T11:10:34.324Z,6.93
2023-03-27T11:13:23.116Z,6.32
2023-03-27T11:16:18.687Z,5.07
2023-03-27T11:19:11.383Z,5.97
2023-03-27T11:22:35.114Z,6.95
2023-03-27T11:25:41.000Z,5.90
2023-03-27T11:28:18.652Z,7.20
2023-03-27T11:30:56.023Z,5.47
2023-03-27T11:33:46.454Z,4.72
2023-03-27T11:37:04.934Z,7.13
2023-03-27T11:40:05.742Z,6.50
2023-03-27T11:42:43.388Z,5.25
2023-03-27T11:45:17.332Z,6.80
2023-03-27T11:48:05.227Z,7.32
2023-03-27T11:51:06.842Z,5.63
2023-03-27T11:53:54.997Z,6.15
2023-03-27T11:56:54.737Z,5.50
2023-03-27T12:00:05.485Z,5.28
2023-03-27T12:03:21.270Z,3.83
2023-03-27T12:06:40.860Z,6.93
2023-03-27T12:10:01.676Z,6.40
2023-03-27T12:13:34.973Z,8.63
2023-03-27T12:16:30.721Z,5.65
2023-03-27T12:19:45.090Z,7.53
2023-03-27T12:22:57.742Z,5.28
2023-03-27T12:26:10.143Z,5.95
2023-03-27T12:29:24.442Z,8.00
2023-03-27T12:32:19.189Z,5.78
2023-03-27T12:35:03.411Z,6.20
2023-03-27T12:38:06.248Z,6.07
2023-03-27T12:40:42.067Z,4.55
2023-03-27T12:43:39.741Z,3.50
2023-03-27T12:46:41.082Z,6.50
2023-03-27T12:49:11.893Z,5.40
2023-03-27T12:51:54.663Z,4.80
2023-03-27T12:54:40.596Z,4.28
2023-03-27T12:57:30.853Z,4.40
2023-03-27T13:00:10.331Z,5.50
2023-03-27T13:03:21.632Z,4.25
2023-03-27T13:06:37.631Z,6.03
2023-03-27T13:09:52.862Z,5.07
2023-03-27T13:13:17.240Z,5.55
2023-03-27T13:15:52.637Z,5.53
2023-03-27T13:19:09.312Z,7.47
2023-03-27T13:22:09.267Z,6.60
2023-03-27T13:25:30.688Z,7.95
2023-03-27T13:28:48.631Z,4.78
2023-03-27T13:31:47.147Z,5.50
2023-03-27T13:34:26.591Z,8.68
2023-03-27T13:37:11.612Z,6.25
2023-03-27T13:40:04.041Z,7.03
2023-03-27T13:42:44.995Z,5.18
2023-03-27T13:45:38.366Z,5.25
2023-03-27T13:49:02.445Z,5.03
2023-03-27T13:52:31.926Z,5.47
2023-03-27T13:55:17.475Z,5.35
2023-03-27T13:58:41.799Z,5.35
2023-03-27T14:02:02.062Z,6.85
2023-03-27T14:04:51.982Z,7.50
2023-03-27T14:08:19.623Z,5.40
2023-03-27T14:11:53.289Z,7.90
2023-03-27T14:15:33.599Z,6.35
2023-03-27T14:18:53.554Z,5.60
2023-03-27T14:21:37.944Z,8.05
2023-03-27T14:24:32.472Z,7.90
2023-03-27T14:27:16.827Z,5.00
2023-03-27T14:29:45.090Z,7.03
2023-03-27T14:32:19.869Z,8.25
2023-03-27T14:34:55.082Z,7.22
2023-03-27T14:37:37.501Z,7.20
2023-03-27T14:40:27.700Z,5.70
2023-03-27T14:43:01.610Z,5.68
2023-03-27T14:45:39.280Z,6.55
2023-03-27T14:48:26.955Z,5.55
2023-03-27T14:51:04.429Z,6.05
2023-03-27T14:53:44.068Z,4.93
2023-03-27T14:56:47.281Z,4.18
2023-03-27T14:59:42.754Z,5.82
2023-03-27T15:02:20.807Z,7.40
2023-03-27T15:04:50.172Z,7.63
2023-03-27T15:07:28.605Z,5.05
2023-03-27T15:10:28.202Z,7.00
2023-03-27T15:13:11.216Z,7.38
2023-03-27T15:15:50.079Z,6.88
2023-03-27T15:18:42.949Z,5.45
2023-03-27T15:21:34.649Z,4.65
2023-03-27T15:24:32.802Z,5.57
2023-03-27T15:27:02.248Z,9.15
2023-03-27T15:29:49.542Z,6.45
2023-03-27T15:32:22.019Z,7.10
2023-03-27T15:34:58.235Z,5.22
2023-03-27T15:37:28.628Z,4.70
2023-03-27T15:40:10.907Z,4.63
2023-03-27T15:42:52.379Z,5.38
2023-03-27T15:45:24.320Z,6.40
2023-03-27T15:48:16.845Z,6.82
2023-03-27T15:51:29.551Z,5.93
2023-03-27T15:53:57.110Z,5.75
2023-03-27T15:56:39.722Z,6.85
2023-03-27T15:59:15.498Z,5.50
2023-03-27T16:01:53.448Z,7.03
2023-03-27T16:04:41.945Z,5.45
2023-03-27T16:07:27.334Z,6.05
2023-03-27T16:10:06.767Z,4.10
2023-03-27T16:12:55.922Z,5.40
2023-03-27T16:15:41.370Z,4.95
2023-03-27T16:18:28.281Z,4.32
2023-03-27T16:21:14.881Z,3.03
2023-03-27T16:23:43.935Z,5.68
2023-03-27T16:26:18.494Z,4.03
2023-03-27T16:28:45.687Z,5.80
2023-03-27T16:31:19.733Z,5.65
2023-03-27T16:33:47.772Z,5.50
2023-03-27T16:36:20.779Z,6.07
2023-03-27T16:38:48.527Z,4.32
2023-03-27T16:41:18.077Z,6.13
2023-03-27T16:43:46.297Z,8.10
2023-03-27T16:46:33.793Z,3.22
2023-03-27T16:49:01.554Z,6.50
2023-03-27T16:51:29.295Z,4.00
2023-03-27T16:53:57.367Z,6.13
2023-03-27T16:56:24.598Z,7.32
2023-03-27T16:58:51.857Z,4.97
2023-03-27T17:01:19.214Z,5.78
2023-03-27T17:03:46.838Z,4.22
2023-03-27T17:06:15.168Z,5.30
2023-03-27T17:08:42.499Z,5.78
2023-03-27T17:11:13.520Z,3.00
2023-03-27T17:13:43.399Z,3.28
2023-03-27T17:16:11.514Z,4.85
2023-03-27T17:18:38.921Z,4.32
2023-03-27T17:21:06.652Z,4.93
2023-03-27T17:23:33.917Z,5.55
2023-03-27T17:26:04.949Z,4.72
2023-03-27T17:28:32.220Z,5.15
2023-03-27T17:31:04.762Z,3.58
2023-03-27T17:33:33.753Z,5.07
2023-03-27T17:36:01.435Z,4.68
2023-03-27T17:38:29.458Z,5.07
2023-03-27T17:40:56.653Z,4.35
2023-03-27T17:43:23.785Z,3.60
2023-03-27T17:45:51.550Z,4.53
2023-03-27T17:48:20.295Z,5.22
2023-03-27T17:50:54.813Z,6.10
2023-03-27T17:53:30.663Z,6.68
2023-03-27T17:55:59.431Z,3.17
2023-03-27T17:58:28.349Z,5.78
2023-03-27T18:00:55.826Z,6.15
2023-03-27T18:03:23.569Z,3.42
2023-03-27T18:05:51.027Z,5.22
2023-03-27T18:08:19.996Z,6.43
2023-03-27T18:10:50.757Z,3.72
2023-03-27T18:13:19.420Z,4.38
2023-03-27T18:15:58.308Z,6.45
2023-03-27T18:18:26.250Z,5.47
2023-03-27T18:20:55.650Z,4.55
2023-03-27T18:23:23.023Z,4.65
2023-03-27T18:25:50.336Z,6.90
2023-03-27T18:28:17.505Z,6.32
2023-03-27T18:30:44.660Z,7.95
2023-03-27T18:33:12.018Z,6.75
2023-03-27T18:35:42.589Z,9.27
2023-03-27T18:38:11.621Z,25.52
2023-03-27T18:40:38.821Z,7.53
2023-03-27T18:43:06.325Z,7.03
2023-03-27T18:45:35.210Z,5.65
2023-03-27T18:48:02.433Z,7.68
2023-03-27T18:50:29.618Z,7.88
2023-03-27T18:52:56.741Z,5.85
2023-03-27T18:55:24.102Z,8.25
2023-03-27T18:57:51.960Z,7.15
2023-03-27T19:00:20.369Z,7.20
2023-03-27T19:02:49.019Z,8.68
2023-03-27T19:05:17.754Z,9.38
2023-03-27T19:07:45.362Z,7.82
2023-03-27T19:10:14.008Z,7.50
2023-03-27T19:12:44.957Z,7.57
2023-03-27T19:15:36.200Z,8.07
2023-03-27T19:18:06.409Z,6.68
2023-03-27T19:21:02.849Z,5.90
2023-03-27T19:23:45.258Z,7.50
2023-03-27T19:26:17.022Z,12.07
2023-03-27T19:28:49.670Z,7.68
2023-03-27T19:31:17.460Z,6.68
2023-03-27T19:33:45.881Z,7.00
2023-03-27T19:36:13.123Z,8.00
2023-03-27T19:38:40.449Z,5.90
2023-03-27T19:41:11.391Z,5.45
2023-03-27T19:43:38.598Z,5.90
2023-03-27T19:46:15.573Z,5.68
2023-03-27T19:48:49.567Z,5.57
2023-03-27T19:51:25.789Z,5.18
2023-03-27T19:53:53.428Z,7.00
2023-03-27T19:56:23.461Z,7.95
2023-03-27T19:58:50.933Z,4.93
2023-03-27T20:01:19.875Z,6.15
2023-03-27T20:03:47.370Z,4.85
2023-03-27T20:06:18.945Z,5.55
2023-03-27T20:08:46.272Z,5.18
2023-03-27T20:11:15.786Z,4.53
2023-03-27T20:13:55.367Z,4.25
2023-03-27T20:16:27.454Z,4.78
2023-03-27T20:19:05.812Z,4.05
2023-03-27T20:21:39.804Z,4.93
2023-03-27T20:24:14.140Z,4.75
2023-03-27T20:26:48.371Z,6.65
2023-03-27T20:29:24.117Z,6.45
2023-03-27T20:31:51.715Z,6.53
2023-03-27T20:34:19.996Z,5.90
2023-03-27T20:36:47.894Z,6.40
2023-03-27T20:39:27.206Z,5.88
2023-03-27T20:41:59.071Z,7.60
2023-03-27T20:44:35.396Z,5.78
2023-03-27T20:47:10.683Z,6.03
2023-03-27T20:49:45.487Z,5.30
2023-03-27T20:52:17.725Z,7.28
2023-03-27T20:54:45.331Z,6.03
2023-03-27T20:57:15.489Z,7.30
2023-03-27T20:59:42.705Z,6.85
2023-03-27T21:02:21.627Z,5.53
2023-03-27T21:04:49.166Z,9.00
2023-03-27T21:07:16.781Z,6.72
2023-03-27T21:09:46.455Z,5.82
2023-03-27T21:12:13.766Z,6.05
2023-03-27T21:14:41.082Z,4.78
2023-03-27T21:17:11.841Z,4.82
2023-03-27T21:19:39.131Z,7.28
2023-03-27T21:22:06.248Z,5.38
2023-03-27T21:24:33.397Z,6.72
2023-03-27T21:27:00.646Z,7.40
2023-03-27T21:29:27.882Z,7.15
2023-03-27T21:31:55.200Z,5.50
2023-03-27T21:34:22.610Z,6.55
2023-03-27T21:36:49.976Z,6.72
2023-03-27T21:39:17.172Z,7.13
2023-03-27T21:41:44.439Z,7.35
2023-03-27T21:44:11.560Z,5.93
2023-03-27T21:46:38.756Z,5.05
2023-03-27T21:49:05.927Z,5.13
2023-03-27T21:51:33.049Z,5.22
2023-03-27T21:54:00.372Z,6.47
2023-03-27T21:56:27.617Z,5.68
2023-03-27T21:58:57.337Z,6.43
2023-03-27T22:01:25.974Z,4.80
2023-03-27T22:03:53.467Z,6.47
2023-03-27T22:06:20.968Z,7.32
2023-03-27T22:08:48.574Z,4.35
2023-03-27T22:11:16.032Z,7.13
2023-03-27T22:13:43.426Z,5.53
2023-03-27T22:16:15.776Z,5.65
2023-03-27T22:18:44.637Z,6.22
2023-03-27T22:21:22.786Z,5.45
2023-03-27T22:23:51.333Z,5.85
2023-03-27T22:26:22.988Z,5.78
2023-03-27T22:28:52.651Z,7.13
2023-03-27T22:31:21.802Z,7.43
2023-03-27T22:33:49.985Z,3.38
2023-03-27T22:36:18.969Z,4.78
2023-03-27T22:38:46.562Z,10.60
2023-03-27T22:41:16.084Z,8.75
2023-03-27T22:43:43.911Z,7.78
2023-03-27T22:46:21.888Z,5.07
2023-03-27T22:48:58.350Z,5.07
2023-03-27T22:51:29.285Z,4.43
2023-03-27T22:53:56.782Z,7.00
2023-03-27T22:56:24.350Z,5.43
2023-03-27T22:58:51.702Z,6.05
2023-03-27T23:01:19.105Z,8.00
2023-03-27T23:03:46.608Z,9.63
2023-03-27T23:06:21.106Z,8.38
2023-03-27T23:08:49.879Z,9.32
2023-03-27T23:11:19.041Z,8.38
2023-03-27T23:13:47.190Z,9.02
2023-03-27T23:16:16.054Z,11.57
2023-03-27T23:18:43.269Z,5.45
2023-03-27T23:21:13.939Z,8.15
2023-03-27T23:23:41.198Z,6.25
2023-03-27T23:26:09.945Z,4.75
2023-03-27T23:28:41.723Z,5.60
2023-03-27T23:31:18.250Z,6.82
2023-03-27T23:33:50.485Z,6.38
2023-03-27T23:36:23.550Z,5.20
2023-03-27T23:38:53.258Z,7.28
2023-03-27T23:41:21.669Z,7.22
2023-03-27T23:43:49.386Z,7.50
2023-03-27T23:46:17.124Z,7.55
2023-03-27T23:48:45.464Z,7.30
2023-03-27T23:51:15.819Z,6.35
2023-03-27T23:53:43.799Z,7.35
2023-03-27T23:56:11.944Z,5.00
2023-03-27T23:58:39.529Z,5.55
